createdAt,value
2018-12-06T00:00:16.464Z,0.00
2018-12-06T00:01:16.473Z,0.00
2018-12-06T00:02:16.514Z,0.00
2018-12-06T00:03:16.508Z,0.00
2018-12-06T00:04:16.519Z,0.00
2018-12-06T00:05:16.540Z,0.00
2018-12-06T00:06:16.544Z,0.00
2018-12-06T00:07:16.558Z,0.00
2018-12-06T00:08:16.574Z,0.00
2018-12-06T00:09:16.584Z,0.00
2018-12-06T00:10:16.600Z,0.00
2018-12-06T00:11:16.618Z,0.00
2018-12-06T00:12:16.623Z,0.00
2018-12-06T00:13:16.643Z,0.00
2018-12-06T00:14:16.656Z,0.00
2018-12-06T00:15:16.669Z,0.00
2018-12-06T00:16:16.681Z,0.00
2018-12-06T00:17:16.693Z,0.00
2018-12-06T00:18:16.708Z,0.00
2018-12-06T00:19:16.754Z,0.00
2018-12-06T00:20:16.735Z,0.00
2018-12-06T00:21:16.750Z,0.00
2018-12-06T00:22:16.761Z,0.00
2018-12-06T00:23:16.778Z,0.00
2018-12-06T00:24:16.792Z,0.00
2018-12-06T00:25:16.805Z,0.00
2018-12-06T00:26:16.815Z,0.00
2018-12-06T00:27:16.832Z,0.00
2018-12-06T00:28:16.843Z,0.00
2018-12-06T00:29:16.858Z,0.00
2018-12-06T00:30:16.872Z,0.00
2018-12-06T00:31:16.889Z,0.00
2018-12-06T00:32:16.898Z,0.00
2018-12-06T00:33:16.918Z,0.00
2018-12-06T00:34:16.940Z,0.00
2018-12-06T00:35:16.951Z,0.00
2018-12-06T00:36:16.956Z,0.00
2018-12-06T00:37:16.969Z,0.00
2018-12-06T00:38:16.980Z,0.00
2018-12-06T00:39:17.007Z,0.00
2018-12-06T00:40:17.044Z,0.00
2018-12-06T00:41:17.021Z,0.00
2018-12-06T00:42:17.064Z,0.00
2018-12-06T00:43:17.060Z,0.00
2018-12-06T00:44:17.062Z,0.00
2018-12-06T00:45:17.074Z,0.00
2018-12-06T00:46:17.090Z,0.00
2018-12-06T00:47:17.105Z,0.00
2018-12-06T00:48:17.119Z,0.00
2018-12-06T00:49:17.128Z,0.00
2018-12-06T00:50:17.150Z,0.00
2018-12-06T00:51:17.162Z,0.00
2018-12-06T00:52:17.173Z,0.00
2018-12-06T00:53:17.190Z,0.00
2018-12-06T00:54:17.201Z,0.00
2018-12-06T00:55:17.215Z,0.00
2018-12-06T00:56:17.238Z,0.00
2018-12-06T00:57:17.241Z,0.00
2018-12-06T00:58:17.253Z,0.00
2018-12-06T00:59:17.271Z,0.00
2018-12-06T01:00:17.284Z,0.00
2018-12-06T01:01:17.303Z,0.00
2018-12-06T01:02:17.311Z,0.00
2018-12-06T01:03:17.323Z,0.00
2018-12-06T01:04:17.340Z,0.00
2018-12-06T01:05:17.353Z,0.00
2018-12-06T01:06:17.378Z,0.00
2018-12-06T01:07:17.379Z,0.00
2018-12-06T01:08:17.393Z,0.00
2018-12-06T01:09:17.409Z,0.00
2018-12-06T01:10:17.419Z,0.00
2018-12-06T01:11:17.444Z,0.00
2018-12-06T01:12:17.451Z,0.00
2018-12-06T01:13:17.461Z,0.00
2018-12-06T01:14:17.476Z,0.00
2018-12-06T01:15:17.490Z,0.00
2018-12-06T01:16:17.502Z,0.00
2018-12-06T01:17:17.515Z,0.00
2018-12-06T01:18:17.531Z,0.00
2018-12-06T01:19:17.546Z,0.00
2018-12-06T01:20:17.571Z,0.00
2018-12-06T01:21:17.573Z,0.00
2018-12-06T01:22:17.590Z,0.00
2018-12-06T01:23:17.602Z,0.00
2018-12-06T01:24:17.636Z,0.00
2018-12-06T01:25:17.628Z,0.00
2018-12-06T01:26:17.648Z,0.00
2018-12-06T01:27:17.657Z,0.00
2018-12-06T01:28:17.672Z,0.00
2018-12-06T01:29:17.685Z,0.00
2018-12-06T01:30:17.706Z,0.00
2018-12-06T01:31:17.714Z,0.00
2018-12-06T01:32:17.733Z,0.00
2018-12-06T01:33:17.748Z,0.00
2018-12-06T01:34:17.752Z,0.00
2018-12-06T01:35:17.774Z,0.00
2018-12-06T01:36:17.783Z,0.00
2018-12-06T01:37:17.797Z,0.00
2018-12-06T01:38:17.820Z,0.00
2018-12-06T01:39:17.826Z,0.00
2018-12-06T01:40:17.853Z,0.00
2018-12-06T01:41:17.849Z,0.00
2018-12-06T01:42:17.865Z,0.00
2018-12-06T01:43:17.879Z,0.00
2018-12-06T01:44:17.906Z,0.00
2018-12-06T01:45:17.910Z,0.00
2018-12-06T01:46:17.926Z,0.00
2018-12-06T01:47:17.935Z,0.00
2018-12-06T01:48:17.954Z,0.00
2018-12-06T01:49:17.980Z,0.00
2018-12-06T01:50:17.988Z,0.00
2018-12-06T01:51:17.990Z,0.00
2018-12-06T01:52:18.021Z,0.00
2018-12-06T01:53:18.031Z,0.00
2018-12-06T01:54:18.036Z,0.00
2018-12-06T01:55:18.053Z,0.00
2018-12-06T01:56:18.062Z,0.00
2018-12-06T01:57:18.089Z,0.00
2018-12-06T01:58:18.089Z,0.00
2018-12-06T01:59:18.116Z,0.00
2018-12-06T02:00:18.125Z,0.00
2018-12-06T02:01:18.135Z,0.00
2018-12-06T02:02:18.166Z,0.00
2018-12-06T02:03:18.186Z,0.00
2018-12-06T02:04:18.236Z,0.00
2018-12-06T02:05:18.198Z,0.00
2018-12-06T02:06:18.208Z,0.00
2018-12-06T02:07:18.221Z,0.00
2018-12-06T02:08:18.231Z,0.00
2018-12-06T02:09:18.246Z,0.00
2018-12-06T02:10:18.295Z,0.00
2018-12-06T02:11:18.276Z,0.00
2018-12-06T02:12:18.294Z,0.00
2018-12-06T02:13:18.302Z,0.00
2018-12-06T02:14:18.322Z,0.00
2018-12-06T02:15:18.333Z,0.00
2018-12-06T02:16:18.347Z,0.00
2018-12-06T02:17:18.362Z,0.00
2018-12-06T02:18:18.383Z,0.00
2018-12-06T02:19:18.397Z,0.00
2018-12-06T02:20:18.409Z,0.00
2018-12-06T02:21:18.420Z,0.00
2018-12-06T02:22:18.435Z,0.00
2018-12-06T02:23:18.450Z,0.00
2018-12-06T02:24:18.461Z,0.00
2018-12-06T02:25:18.483Z,0.00
2018-12-06T02:26:18.506Z,0.00
2018-12-06T02:27:18.503Z,0.00
2018-12-06T02:28:18.516Z,0.00
2018-12-06T02:29:18.535Z,0.00
2018-12-06T02:30:18.549Z,0.00
2018-12-06T02:31:18.561Z,0.00
2018-12-06T02:32:18.576Z,0.00
2018-12-06T02:33:18.593Z,0.00
2018-12-06T02:34:18.617Z,0.00
2018-12-06T02:35:18.620Z,0.00
2018-12-06T02:36:18.674Z,0.00
2018-12-06T02:37:18.654Z,0.00
2018-12-06T02:38:18.662Z,0.00
2018-12-06T02:39:18.713Z,0.00
2018-12-06T02:40:18.691Z,0.00
2018-12-06T02:41:18.703Z,0.00
2018-12-06T02:42:18.728Z,0.00
2018-12-06T02:43:18.736Z,0.00
2018-12-06T02:44:18.749Z,0.00
2018-12-06T02:45:18.756Z,0.00
2018-12-06T02:46:18.776Z,0.00
2018-12-06T02:47:18.787Z,0.00
2018-12-06T02:48:18.826Z,0.00
2018-12-06T02:49:18.819Z,0.00
2018-12-06T02:50:18.873Z,0.00
2018-12-06T02:51:18.849Z,0.00
2018-12-06T02:52:18.862Z,0.00
2018-12-06T02:53:18.879Z,0.00
2018-12-06T02:54:18.891Z,0.00
2018-12-06T02:55:18.943Z,0.00
2018-12-06T02:56:18.914Z,0.00
2018-12-06T02:57:18.933Z,0.00
2018-12-06T02:58:18.958Z,0.00
2018-12-06T02:59:18.964Z,0.00
2018-12-06T03:00:18.974Z,0.00
2018-12-06T03:01:18.985Z,0.00
2018-12-06T03:02:19.007Z,0.00
2018-12-06T03:03:19.049Z,0.00
2018-12-06T03:04:19.045Z,0.00
2018-12-06T03:05:19.071Z,0.00
2018-12-06T03:06:19.065Z,0.00
2018-12-06T03:07:19.079Z,0.00
2018-12-06T03:08:19.202Z,0.00
2018-12-06T03:38:05.829Z,0.00
2018-12-06T03:39:05.809Z,0.00
2018-12-06T03:40:57.751Z,0.00
2018-12-06T03:41:57.752Z,0.00
2018-12-06T03:43:49.654Z,0.00
2018-12-06T03:44:49.645Z,0.00
2018-12-06T03:46:41.621Z,0.00
2018-12-06T03:47:41.567Z,0.00
2018-12-06T03:49:33.480Z,0.00
2018-12-06T03:50:33.485Z,0.00
2018-12-06T03:52:25.405Z,0.00
2018-12-06T03:53:25.395Z,0.00
2018-12-06T03:55:17.303Z,0.00
2018-12-06T03:56:17.311Z,0.00
2018-12-06T03:58:09.245Z,0.00
2018-12-06T03:59:09.222Z,0.00
2018-12-06T04:01:01.149Z,0.00
2018-12-06T04:02:01.182Z,0.00
2018-12-06T04:03:53.084Z,0.00
2018-12-06T04:04:53.054Z,0.00
2018-12-06T04:06:44.979Z,0.00
2018-12-06T04:07:44.967Z,0.00
2018-12-06T04:09:36.873Z,0.00
2018-12-06T04:10:36.888Z,0.00
2018-12-06T04:12:28.801Z,0.00
2018-12-06T04:13:28.790Z,0.00
2018-12-06T04:15:20.721Z,0.00
2018-12-06T04:16:20.712Z,0.00
2018-12-06T04:18:12.637Z,0.00
2018-12-06T04:19:12.638Z,0.00
2018-12-06T04:21:04.555Z,0.00
2018-12-06T04:22:04.546Z,0.00
2018-12-06T04:23:56.476Z,0.00
2018-12-06T04:24:56.468Z,0.00
2018-12-06T04:26:48.393Z,0.00
2018-12-06T04:27:48.386Z,0.00
2018-12-06T04:29:40.326Z,0.00
2018-12-06T04:30:40.301Z,0.00
2018-12-06T04:32:32.233Z,0.00
2018-12-06T04:33:32.221Z,0.00
2018-12-06T04:35:24.129Z,0.00
2018-12-06T04:36:24.139Z,0.00
2018-12-06T04:38:16.091Z,0.00
2018-12-06T04:39:16.080Z,0.00
2018-12-06T04:41:07.986Z,0.00
2018-12-06T04:42:07.993Z,0.00
2018-12-06T04:43:59.947Z,0.00
2018-12-06T04:44:59.915Z,0.00
2018-12-06T04:46:51.842Z,0.00
2018-12-06T04:47:51.835Z,0.00
2018-12-06T04:49:43.756Z,0.00
2018-12-06T04:50:43.754Z,0.00
2018-12-06T04:52:35.678Z,0.00
2018-12-06T04:53:35.666Z,0.00
2018-12-06T04:55:27.588Z,0.00
2018-12-06T04:56:27.591Z,0.00
2018-12-06T04:58:19.519Z,0.00
2018-12-06T04:59:19.509Z,0.00
2018-12-06T05:01:11.424Z,0.00
2018-12-06T05:02:11.432Z,0.00
2018-12-06T05:04:03.371Z,0.00
2018-12-06T05:05:03.359Z,0.00
2018-12-06T05:06:55.295Z,0.00
2018-12-06T05:07:55.277Z,0.00
2018-12-06T05:09:47.188Z,0.00
2018-12-06T05:10:47.208Z,0.00
2018-12-06T05:12:39.135Z,0.00
2018-12-06T05:13:39.126Z,0.00
2018-12-06T05:15:31.039Z,0.00
2018-12-06T05:16:31.042Z,0.00
2018-12-06T05:18:22.977Z,0.00
2018-12-06T05:19:22.970Z,0.00
2018-12-06T05:21:15.110Z,0.00
2018-12-06T05:22:15.110Z,0.00
2018-12-06T05:24:07.024Z,0.00
2018-12-06T05:25:07.018Z,0.00
2018-12-06T05:26:58.932Z,0.00
2018-12-06T05:27:58.936Z,0.00
2018-12-06T05:29:50.861Z,0.00
2018-12-06T05:30:50.851Z,0.00
2018-12-06T05:32:42.793Z,0.00
2018-12-06T05:33:42.774Z,0.00
2018-12-06T05:35:34.690Z,0.00
2018-12-06T05:36:34.695Z,0.00
2018-12-06T05:38:27.124Z,0.00
2018-12-06T05:39:27.131Z,0.00
2018-12-06T05:41:20.602Z,0.00
2018-12-06T05:42:20.533Z,0.00
2018-12-06T05:44:12.463Z,0.00
2018-12-06T05:45:12.454Z,0.00
2018-12-06T05:47:04.364Z,0.00
2018-12-06T05:48:04.373Z,0.00
2018-12-06T05:49:56.326Z,0.00
2018-12-06T05:50:56.311Z,0.00
2018-12-06T05:52:48.226Z,0.00
2018-12-06T05:53:48.278Z,0.00
2018-12-06T05:55:40.164Z,0.00
2018-12-06T05:56:40.168Z,0.00
2018-12-06T05:58:32.090Z,0.00
2018-12-06T05:59:32.076Z,0.00
2018-12-06T06:01:24.000Z,0.00
2018-12-06T06:02:24.002Z,0.00
2018-12-06T06:04:15.977Z,0.00
2018-12-06T06:05:15.961Z,0.00
2018-12-06T06:07:07.896Z,0.00
2018-12-06T06:08:07.890Z,0.00
2018-12-06T06:10:00.330Z,0.00
2018-12-06T06:11:00.316Z,0.00
2018-12-06T06:12:52.239Z,0.00
2018-12-06T06:13:52.249Z,0.00
2018-12-06T06:15:44.174Z,0.00
2018-12-06T06:16:44.164Z,0.00
2018-12-06T06:18:36.081Z,0.00
2018-12-06T06:19:36.085Z,0.00
2018-12-06T06:21:28.016Z,0.00
2018-12-06T06:22:28.033Z,0.00
2018-12-06T06:24:20.027Z,0.00
2018-12-06T06:25:19.927Z,0.00
2018-12-06T06:27:11.875Z,0.00
2018-12-06T06:28:11.893Z,0.00
2018-12-06T06:30:03.821Z,0.00
2018-12-06T06:31:03.812Z,0.00
2018-12-06T06:32:55.719Z,0.00
2018-12-06T06:33:55.726Z,0.00
2018-12-06T06:35:47.702Z,0.00
2018-12-06T06:36:47.692Z,0.00
2018-12-06T06:38:39.605Z,0.00
2018-12-06T06:39:39.621Z,0.00
2018-12-06T06:41:31.568Z,0.00
2018-12-06T06:42:31.555Z,0.00
2018-12-06T06:44:23.472Z,0.00
2018-12-06T06:45:23.496Z,0.00
2018-12-06T06:47:15.410Z,0.00
2018-12-06T06:48:15.403Z,0.00
2018-12-06T06:50:07.351Z,0.00
2018-12-06T06:51:07.335Z,0.00
2018-12-06T06:52:59.246Z,0.00
2018-12-06T06:53:59.260Z,0.00
2018-12-06T06:55:51.204Z,0.00
2018-12-06T06:56:51.171Z,0.00
2018-12-06T06:58:43.087Z,4.00
2018-12-06T06:59:43.087Z,0.00
2018-12-06T07:01:35.025Z,4.00
2018-12-06T07:02:35.011Z,4.00
2018-12-06T07:04:26.921Z,4.00
2018-12-06T07:05:26.934Z,0.00
2018-12-06T07:07:18.868Z,4.00
2018-12-06T07:08:18.894Z,4.00
2018-12-06T07:10:10.772Z,8.00
2018-12-06T07:11:10.782Z,8.00
2018-12-06T07:13:02.734Z,12.00
2018-12-06T07:14:02.712Z,12.00
2018-12-06T07:15:54.608Z,16.00
2018-12-06T07:16:54.623Z,20.00
2018-12-06T07:18:46.553Z,24.00
2018-12-06T07:19:46.556Z,24.00
2018-12-06T07:21:38.494Z,24.00
2018-12-06T07:22:38.503Z,28.00
2018-12-06T07:24:30.399Z,36.00
2018-12-06T07:25:30.409Z,32.00
2018-12-06T07:27:22.366Z,40.00
2018-12-06T07:28:22.326Z,44.00
2018-12-06T07:30:14.242Z,44.00
2018-12-06T07:31:14.253Z,48.00
2018-12-06T07:33:06.211Z,64.00
2018-12-06T07:34:06.184Z,72.00
2018-12-06T07:35:58.206Z,48.00
2018-12-06T07:36:58.245Z,56.00
2018-12-06T07:38:50.182Z,72.00
2018-12-06T07:39:50.179Z,56.00
2018-12-06T07:41:42.042Z,64.00
2018-12-06T07:42:42.048Z,72.00
2018-12-06T07:44:33.997Z,68.00
2018-12-06T07:45:33.990Z,80.00
2018-12-06T07:47:25.890Z,84.00
2018-12-06T07:48:25.916Z,88.00
2018-12-06T07:50:17.829Z,116.00
2018-12-06T07:51:17.816Z,132.00
2018-12-06T07:53:09.745Z,168.00
2018-12-06T07:54:09.737Z,188.00
2018-12-06T07:56:01.649Z,164.00
2018-12-06T07:57:01.681Z,164.00
2018-12-06T07:58:53.679Z,164.00
2018-12-06T07:59:53.637Z,168.00
2018-12-06T08:00:53.655Z,172.00
2018-12-06T08:01:53.663Z,184.00
2018-12-06T08:02:53.682Z,172.00
2018-12-06T08:03:53.721Z,184.00
2018-12-06T08:04:53.714Z,200.00
2018-12-06T08:05:53.756Z,204.00
2018-12-06T08:06:53.748Z,224.00
2018-12-06T08:07:53.765Z,264.00
2018-12-06T08:08:53.840Z,264.00
2018-12-06T08:09:53.803Z,272.00
2018-12-06T08:10:53.816Z,308.00
2018-12-06T08:11:53.826Z,296.00
2018-12-06T08:12:53.844Z,304.00
2018-12-06T08:13:53.869Z,328.00
2018-12-06T08:14:53.871Z,308.00
2018-12-06T08:15:53.882Z,364.00
2018-12-06T08:16:53.904Z,440.00
2018-12-06T08:17:54.014Z,452.00
2018-12-06T08:18:53.939Z,452.00
2018-12-06T08:19:53.956Z,472.00
2018-12-06T08:20:53.971Z,540.00
2018-12-06T08:21:53.995Z,568.00
2018-12-06T08:22:54.004Z,688.00
2018-12-06T08:23:54.017Z,608.00
2018-12-06T08:24:54.073Z,524.00
2018-12-06T08:25:54.047Z,444.00
2018-12-06T08:26:54.059Z,352.00
2018-12-06T08:27:54.077Z,348.00
2018-12-06T08:28:54.096Z,340.00
2018-12-06T08:29:54.118Z,276.00
2018-12-06T08:30:54.135Z,240.00
2018-12-06T08:31:54.141Z,248.00
2018-12-06T08:32:54.199Z,312.00
2018-12-06T08:33:54.197Z,352.00
2018-12-06T08:34:54.211Z,400.00
2018-12-06T08:35:54.200Z,428.00
2018-12-06T08:36:54.220Z,472.00
2018-12-06T08:37:54.276Z,472.00
2018-12-06T08:38:54.260Z,504.00
2018-12-06T08:39:54.330Z,528.00
2018-12-06T08:40:54.280Z,544.00
2018-12-06T08:41:54.335Z,656.00
2018-12-06T08:42:54.317Z,756.00
2018-12-06T08:43:54.333Z,864.00
2018-12-06T08:44:54.360Z,876.00
2018-12-06T08:45:54.359Z,876.00
2018-12-06T08:46:54.373Z,856.00
2018-12-06T08:47:54.415Z,840.00
2018-12-06T08:48:54.433Z,852.00
2018-12-06T08:49:54.421Z,912.00
2018-12-06T08:50:54.477Z,940.00
2018-12-06T08:51:54.465Z,972.00
2018-12-06T08:52:54.474Z,1020.00
2018-12-06T08:53:54.499Z,1032.00
2018-12-06T08:54:54.512Z,1028.00
2018-12-06T08:55:54.530Z,1028.00
2018-12-06T08:56:54.540Z,1012.00
2018-12-06T08:57:54.553Z,948.00
2018-12-06T08:58:54.577Z,884.00
2018-12-06T08:59:54.584Z,880.00
2018-12-06T09:00:54.616Z,904.00
2018-12-06T09:01:54.626Z,932.00
2018-12-06T09:02:55.537Z,940.00
2018-12-06T09:03:54.662Z,992.00
2018-12-06T09:04:54.888Z,1068.00
2018-12-06T09:05:54.685Z,1160.00
2018-12-06T09:06:54.699Z,1244.00
2018-12-06T09:07:56.149Z,1332.00
2018-12-06T09:08:54.746Z,1376.00
2018-12-06T09:09:54.752Z,1380.00
2018-12-06T09:10:54.771Z,1312.00
2018-12-06T09:11:54.790Z,1200.00
2018-12-06T09:12:54.795Z,1096.00
2018-12-06T09:13:54.909Z,1016.00
2018-12-06T09:14:54.834Z,984.00
2018-12-06T09:15:54.854Z,988.00
2018-12-06T09:16:54.890Z,904.00
2018-12-06T09:17:54.909Z,880.00
2018-12-06T09:18:54.906Z,940.00
2018-12-06T09:19:54.917Z,992.00
2018-12-06T09:20:54.963Z,1068.00
2018-12-06T09:21:54.947Z,1024.00
2018-12-06T09:22:55.013Z,1012.00
2018-12-06T09:23:54.997Z,964.00
2018-12-06T09:24:55.004Z,992.00
2018-12-06T09:25:55.019Z,1088.00
2018-12-06T09:26:58.631Z,1216.00
2018-12-06T09:27:55.051Z,1344.00
2018-12-06T09:28:55.065Z,1428.00
2018-12-06T09:29:55.082Z,1324.00
2018-12-06T09:31:00.996Z,1244.00
2018-12-06T09:31:55.116Z,1284.00
2018-12-06T09:32:55.143Z,1340.00
2018-12-06T09:33:55.148Z,1448.00
2018-12-06T09:34:55.179Z,1496.00
2018-12-06T09:35:55.184Z,1676.00
2018-12-06T09:36:55.199Z,1656.00
2018-12-06T09:37:55.214Z,1672.00
2018-12-06T09:38:55.231Z,1880.00
2018-12-06T09:39:55.247Z,1952.00
2018-12-06T09:40:55.280Z,1992.00
2018-12-06T09:41:55.281Z,1912.00
2018-12-06T09:42:55.295Z,1900.00
2018-12-06T09:43:55.323Z,1928.00
2018-12-06T09:44:55.321Z,1980.00
2018-12-06T09:45:55.341Z,1992.00
2018-12-06T09:46:55.361Z,2240.00
2018-12-06T09:47:55.380Z,2272.00
2018-12-06T09:48:55.477Z,2328.00
2018-12-06T09:49:55.418Z,2316.00
2018-12-06T09:50:55.478Z,2292.00
2018-12-06T09:51:55.444Z,2288.00
2018-12-06T09:52:55.462Z,2288.00
2018-12-06T09:53:55.496Z,2248.00
2018-12-06T09:54:55.493Z,2160.00
2018-12-06T09:55:55.523Z,1964.00
2018-12-06T09:56:55.571Z,1808.00
2018-12-06T09:57:55.550Z,1780.00
2018-12-06T09:58:55.564Z,1688.00
2018-12-06T09:59:55.578Z,1624.00
2018-12-06T10:00:55.599Z,1512.00
2018-12-06T10:01:55.609Z,1416.00
2018-12-06T10:02:55.626Z,1408.00
2018-12-06T10:03:55.654Z,1448.00
2018-12-06T10:04:55.660Z,1492.00
2018-12-06T10:05:55.679Z,1420.00
2018-12-06T10:06:55.703Z,1208.00
2018-12-06T10:07:55.717Z,1140.00
2018-12-06T10:08:55.737Z,1124.00
2018-12-06T10:09:55.740Z,1160.00
2018-12-06T10:10:55.760Z,1056.00
2018-12-06T10:11:55.778Z,1028.00
2018-12-06T10:12:55.795Z,1072.00
2018-12-06T10:13:55.816Z,984.00
2018-12-06T10:14:55.832Z,904.00
2018-12-06T10:15:55.857Z,884.00
2018-12-06T10:16:55.867Z,748.00
2018-12-06T10:17:55.876Z,772.00
2018-12-06T10:18:55.895Z,768.00
2018-12-06T10:19:55.919Z,844.00
2018-12-06T10:20:55.936Z,812.00
2018-12-06T10:21:55.959Z,836.00
2018-12-06T10:22:55.973Z,780.00
2018-12-06T10:23:55.987Z,776.00
2018-12-06T10:24:56.026Z,716.00
2018-12-06T10:25:56.018Z,704.00
2018-12-06T10:26:56.038Z,760.00
2018-12-06T10:27:56.050Z,776.00
2018-12-06T10:28:56.069Z,808.00
2018-12-06T10:29:56.083Z,912.00
2018-12-06T10:30:56.130Z,912.00
2018-12-06T10:31:56.144Z,832.00
2018-12-06T10:32:56.176Z,708.00
2018-12-06T10:33:56.148Z,656.00
2018-12-06T10:34:56.165Z,660.00
2018-12-06T10:35:56.186Z,724.00
2018-12-06T10:36:56.203Z,696.00
2018-12-06T10:37:56.224Z,700.00
2018-12-06T10:38:56.229Z,752.00
2018-12-06T10:39:56.242Z,812.00
2018-12-06T10:40:56.269Z,696.00
2018-12-06T10:41:56.278Z,768.00
2018-12-06T10:42:56.296Z,924.00
2018-12-06T10:43:56.322Z,864.00
2018-12-06T10:44:56.400Z,952.00
2018-12-06T10:45:56.343Z,808.00
2018-12-06T10:46:56.362Z,608.00
2018-12-06T10:47:56.391Z,520.00
2018-12-06T10:48:56.399Z,456.00
2018-12-06T10:49:56.417Z,524.00
2018-12-06T10:50:56.433Z,660.00
2018-12-06T10:51:56.453Z,764.00
2018-12-06T10:52:56.465Z,700.00
2018-12-06T10:53:56.496Z,848.00
2018-12-06T10:54:56.504Z,888.00
2018-12-06T10:55:56.511Z,1008.00
2018-12-06T10:56:57.072Z,1044.00
2018-12-06T10:57:56.558Z,1024.00
2018-12-06T10:58:56.592Z,1056.00
2018-12-06T10:59:56.592Z,1172.00
2018-12-06T11:00:57.574Z,1412.00
2018-12-06T11:01:56.616Z,1648.00
2018-12-06T11:02:56.635Z,1600.00
2018-12-06T11:03:56.650Z,1464.00
2018-12-06T11:04:56.661Z,1428.00
2018-12-06T11:05:56.682Z,1148.00
2018-12-06T11:06:56.698Z,1024.00
2018-12-06T11:07:56.713Z,920.00
2018-12-06T11:08:56.735Z,852.00
2018-12-06T11:09:56.754Z,752.00
2018-12-06T11:10:56.767Z,644.00
2018-12-06T11:11:56.777Z,616.00
2018-12-06T11:12:56.815Z,476.00
2018-12-06T11:13:56.811Z,544.00
2018-12-06T11:14:56.822Z,652.00
2018-12-06T11:15:56.845Z,672.00
2018-12-06T11:16:56.864Z,800.00
2018-12-06T11:17:56.878Z,896.00
2018-12-06T11:18:56.895Z,840.00
2018-12-06T11:19:56.913Z,728.00
2018-12-06T11:20:56.974Z,684.00
2018-12-06T11:21:56.940Z,704.00
2018-12-06T11:22:56.968Z,768.00
2018-12-06T11:23:56.986Z,776.00
2018-12-06T11:24:56.993Z,772.00
2018-12-06T11:25:57.016Z,764.00
2018-12-06T11:26:57.034Z,744.00
2018-12-06T11:27:57.044Z,700.00
2018-12-06T11:28:57.168Z,636.00
2018-12-06T11:29:57.082Z,624.00
2018-12-06T11:30:57.116Z,704.00
2018-12-06T11:31:57.122Z,808.00
2018-12-06T11:32:57.138Z,972.00
2018-12-06T11:33:57.148Z,1104.00
2018-12-06T11:34:57.158Z,1192.00
2018-12-06T11:35:57.177Z,1224.00
2018-12-06T11:36:57.190Z,1256.00
2018-12-06T11:37:57.203Z,1120.00
2018-12-06T11:38:57.225Z,1172.00
2018-12-06T11:39:57.239Z,1240.00
2018-12-06T11:40:57.253Z,1352.00
2018-12-06T11:41:57.289Z,1400.00
2018-12-06T11:42:57.289Z,1460.00
2018-12-06T11:43:57.310Z,1480.00
2018-12-06T11:44:57.343Z,1452.00
2018-12-06T11:45:57.354Z,1588.00
2018-12-06T11:46:57.377Z,1652.00
2018-12-06T11:47:57.372Z,1600.00
2018-12-06T11:48:57.390Z,1484.00
2018-12-06T11:49:57.407Z,1208.00
2018-12-06T11:50:57.420Z,1080.00
2018-12-06T11:51:57.444Z,1136.00
2018-12-06T11:52:57.459Z,1376.00
2018-12-06T11:53:57.483Z,1532.00
2018-12-06T11:54:57.505Z,1744.00
2018-12-06T11:55:57.508Z,1832.00
2018-12-06T11:56:57.527Z,1736.00
2018-12-06T11:57:57.555Z,1652.00
2018-12-06T11:58:57.561Z,1512.00
2018-12-06T11:59:57.578Z,1324.00
2018-12-06T12:00:57.595Z,1176.00
2018-12-06T12:01:57.616Z,1112.00
2018-12-06T12:02:57.623Z,1160.00
2018-12-06T12:03:57.648Z,1200.00
2018-12-06T12:04:57.673Z,1092.00
2018-12-06T12:05:58.693Z,1032.00
2018-12-06T12:06:57.686Z,1000.00
2018-12-06T12:07:57.701Z,996.00
2018-12-06T12:08:57.733Z,916.00
2018-12-06T12:09:57.776Z,996.00
2018-12-06T12:10:57.760Z,1208.00
2018-12-06T12:11:57.776Z,1328.00
2018-12-06T12:12:57.819Z,1416.00
2018-12-06T12:13:57.820Z,1620.00
2018-12-06T12:14:57.834Z,1844.00
2018-12-06T12:15:57.856Z,1988.00
2018-12-06T12:16:57.861Z,1908.00
2018-12-06T12:17:57.877Z,1912.00
2018-12-06T12:18:57.905Z,1964.00
2018-12-06T12:19:57.912Z,2108.00
2018-12-06T12:20:57.929Z,2204.00
2018-12-06T12:21:57.951Z,2284.00
2018-12-06T12:22:57.968Z,2296.00
2018-12-06T12:23:57.986Z,2340.00
2018-12-06T12:24:58.000Z,2344.00
2018-12-06T12:25:58.011Z,2328.00
2018-12-06T12:26:58.074Z,2292.00
2018-12-06T12:27:58.056Z,2288.00
2018-12-06T12:28:58.064Z,2216.00
2018-12-06T12:29:58.074Z,2036.00
2018-12-06T12:30:58.110Z,1956.00
2018-12-06T12:31:58.126Z,2024.00
2018-12-06T12:32:58.135Z,2048.00
2018-12-06T12:33:58.160Z,2100.00
2018-12-06T12:34:58.164Z,2128.00
2018-12-06T12:35:58.180Z,2188.00
2018-12-06T12:36:58.196Z,2224.00
2018-12-06T12:37:58.214Z,2228.00
2018-12-06T12:38:58.232Z,2248.00
2018-12-06T12:39:58.245Z,2276.00
2018-12-06T12:40:58.268Z,2276.00
2018-12-06T12:41:58.286Z,2264.00
2018-12-06T12:42:58.301Z,2256.00
2018-12-06T12:43:58.318Z,2232.00
2018-12-06T12:44:58.331Z,2180.00
2018-12-06T12:45:58.350Z,2144.00
2018-12-06T12:46:58.366Z,2096.00
2018-12-06T12:47:58.382Z,2064.00
2018-12-06T12:48:58.401Z,2072.00
2018-12-06T12:49:58.422Z,2076.00
2018-12-06T12:50:58.451Z,2080.00
2018-12-06T12:51:58.508Z,2088.00
2018-12-06T12:52:58.476Z,2076.00
2018-12-06T12:53:58.495Z,2048.00
2018-12-06T12:54:58.522Z,2020.00
2018-12-06T12:55:58.524Z,1984.00
2018-12-06T12:56:58.540Z,1932.00
2018-12-06T12:57:58.558Z,1844.00
2018-12-06T12:58:58.574Z,1732.00
2018-12-06T12:59:58.587Z,1580.00
2018-12-06T13:00:58.611Z,1512.00
2018-12-06T13:01:58.631Z,1488.00
2018-12-06T13:02:58.640Z,1468.00
2018-12-06T13:03:58.655Z,1396.00
2018-12-06T13:04:58.676Z,1304.00
2018-12-06T13:05:58.694Z,1296.00
2018-12-06T13:06:58.711Z,1316.00
2018-12-06T13:07:58.734Z,1328.00
2018-12-06T13:08:58.748Z,1344.00
2018-12-06T13:09:58.758Z,1392.00
2018-12-06T13:10:58.776Z,1484.00
2018-12-06T13:11:58.789Z,1560.00
2018-12-06T13:12:58.815Z,1628.00
2018-12-06T13:13:58.824Z,1660.00
2018-12-06T13:14:58.842Z,1668.00
2018-12-06T13:15:58.868Z,1652.00
2018-12-06T13:16:58.874Z,1624.00
2018-12-06T13:17:58.907Z,1600.00
2018-12-06T13:18:58.909Z,1520.00
2018-12-06T13:19:58.927Z,1360.00
2018-12-06T13:20:58.949Z,1172.00
2018-12-06T13:21:58.963Z,1008.00
2018-12-06T13:22:58.984Z,928.00
2018-12-06T13:23:59.004Z,812.00
2018-12-06T13:24:59.045Z,728.00
2018-12-06T13:25:59.038Z,656.00
2018-12-06T13:26:59.058Z,676.00
2018-12-06T13:27:59.080Z,604.00
2018-12-06T13:28:59.086Z,624.00
2018-12-06T13:29:59.097Z,676.00
2018-12-06T13:30:59.116Z,724.00
2018-12-06T13:31:59.130Z,836.00
2018-12-06T13:32:59.157Z,872.00
2018-12-06T13:33:59.172Z,916.00
2018-12-06T13:34:59.183Z,972.00
2018-12-06T13:35:59.206Z,1012.00
2018-12-06T13:36:59.227Z,1008.00
2018-12-06T13:37:59.233Z,964.00
2018-12-06T13:39:00.999Z,952.00
2018-12-06T13:39:59.283Z,936.00
2018-12-06T13:40:59.292Z,928.00
2018-12-06T13:41:59.305Z,896.00
2018-12-06T13:42:59.323Z,832.00
2018-12-06T13:43:59.340Z,804.00
2018-12-06T13:44:59.373Z,780.00
2018-12-06T13:45:59.401Z,760.00
2018-12-06T13:46:59.388Z,692.00
2018-12-06T13:47:59.405Z,712.00
2018-12-06T13:48:59.435Z,784.00
2018-12-06T13:49:59.443Z,840.00
2018-12-06T13:50:59.457Z,884.00
2018-12-06T13:51:59.471Z,916.00
2018-12-06T13:52:59.491Z,912.00
2018-12-06T13:53:59.507Z,920.00
2018-12-06T13:54:59.525Z,992.00
2018-12-06T13:55:59.540Z,1024.00
2018-12-06T13:56:59.560Z,1024.00
2018-12-06T13:57:59.585Z,1020.00
2018-12-06T13:58:59.602Z,1020.00
2018-12-06T13:59:59.619Z,1004.00
2018-12-06T14:00:59.912Z,956.00
2018-12-06T14:01:59.644Z,880.00
2018-12-06T14:02:59.659Z,832.00
2018-12-06T14:03:59.674Z,816.00
2018-12-06T14:04:59.706Z,804.00
2018-12-06T14:05:59.729Z,772.00
2018-12-06T14:06:59.735Z,732.00
2018-12-06T14:07:59.749Z,716.00
2018-12-06T14:08:59.763Z,700.00
2018-12-06T14:09:59.781Z,696.00
2018-12-06T14:10:59.794Z,688.00
2018-12-06T14:11:59.810Z,692.00
2018-12-06T14:12:59.829Z,724.00
2018-12-06T14:13:59.862Z,780.00
2018-12-06T14:14:59.865Z,824.00
2018-12-06T14:15:59.880Z,820.00
2018-12-06T14:16:59.912Z,816.00
2018-12-06T14:17:59.921Z,804.00
2018-12-06T14:18:59.941Z,772.00
2018-12-06T14:19:59.950Z,732.00
2018-12-06T14:20:59.965Z,664.00
2018-12-06T14:21:59.979Z,600.00
2018-12-06T14:23:00.001Z,544.00
2018-12-06T14:24:00.015Z,500.00
2018-12-06T14:25:00.032Z,488.00
2018-12-06T14:26:00.048Z,484.00
2018-12-06T14:27:00.068Z,492.00
2018-12-06T14:28:00.091Z,504.00
2018-12-06T14:29:00.095Z,496.00
2018-12-06T14:30:00.115Z,464.00
2018-12-06T14:31:00.138Z,440.00
2018-12-06T14:32:00.156Z,436.00